DAL313 PHNL-KMSP
Flight info
| Callsign | DAL313 |
|---|---|
| Flight time | N/A |
| Altitude | 37000 |
| Route | MKK5 KOLEA CLUTS R465 CINNY OAK SYRAH MVA INSLO Q126 GAROT MTU DDRTH UFFDA TORGY4 |
| Aircraft | A333/H-SDE3GHIJ2J3J5M1RVWXY/LB2D1 |
Departure
| Time | 2026-05-04 04:02 |
|---|---|
| Airport | Daniel K. Inouye International Airport (PHNL) |
Arrival
| Time | N/A |
|---|---|
| Airport | Minneapolis–Saint Paul International Airport / Wold–Chamberlain Field (KMSP) |
| Time | Latitude | Longitude | Altitude | Speed | Heading |
|---|---|---|---|---|---|
| 2026-05-04 03:35 | 21.32934 | -157.91744 | 43 ft | 0 kts | 73° |
| 2026-05-04 03:38 | 21.32934 | -157.91745 | 43 ft | 0 kts | 73° |
| 2026-05-04 03:40 | 21.32933 | -157.91745 | 43 ft | 0 kts | 72° |
| 2026-05-04 03:41 | 21.32933 | -157.91746 | 43 ft | 0 kts | 73° |
| 2026-05-04 03:41 | 21.32929 | -157.91762 | 43 ft | 2 kts | 74° |
| 2026-05-04 03:41 | 21.32925 | -157.91777 | 42 ft | 2 kts | 73° |
| 2026-05-04 03:41 | 21.32920 | -157.91792 | 42 ft | 2 kts | 73° |
| 2026-05-04 03:42 | 21.32916 | -157.91808 | 42 ft | 2 kts | 73° |
| 2026-05-04 03:42 | 21.32912 | -157.91823 | 42 ft | 2 kts | 73° |
| 2026-05-04 03:42 | 21.32907 | -157.91838 | 42 ft | 2 kts | 73° |
| 2026-05-04 03:42 | 21.32903 | -157.91853 | 42 ft | 2 kts | 78° |
| 2026-05-04 03:43 | 21.32902 | -157.91869 | 42 ft | 2 kts | 108° |
| 2026-05-04 03:43 | 21.32908 | -157.91884 | 42 ft | 2 kts | 131° |
| 2026-05-04 03:43 | 21.32919 | -157.91893 | 42 ft | 2 kts | 154° |
| 2026-05-04 03:43 | 21.32934 | -157.91899 | 43 ft | 2 kts | 178° |
| 2026-05-04 03:44 | 21.32941 | -157.91899 | 43 ft | 0 kts | 189° |
| 2026-05-04 03:44 | 21.32918 | -157.91901 | 42 ft | 6 kts | 187° |
| 2026-05-04 03:44 | 21.32886 | -157.91907 | 41 ft | 2 kts | 188° |
| 2026-05-04 03:44 | 21.32883 | -157.91907 | 41 ft | 0 kts | 188° |
| 2026-05-04 03:49 | 21.32882 | -157.91907 | 41 ft | 0 kts | 188° |
| 2026-05-04 03:50 | 21.32846 | -157.91913 | 41 ft | 11 kts | 188° |
| 2026-05-04 03:50 | 21.32780 | -157.91962 | 39 ft | 15 kts | 248° |
| 2026-05-04 03:50 | 21.32773 | -157.92084 | 40 ft | 16 kts | 270° |
| 2026-05-04 03:51 | 21.32773 | -157.92201 | 42 ft | 14 kts | 270° |
| 2026-05-04 03:51 | 21.32773 | -157.92300 | 43 ft | 12 kts | 270° |
| 2026-05-04 03:51 | 21.32773 | -157.92386 | 44 ft | 11 kts | 270° |
| 2026-05-04 03:51 | 21.32774 | -157.92467 | 44 ft | 10 kts | 270° |
| 2026-05-04 03:52 | 21.32774 | -157.92546 | 43 ft | 10 kts | 270° |
| 2026-05-04 03:52 | 21.32774 | -157.92631 | 42 ft | 11 kts | 270° |
| 2026-05-04 03:52 | 21.32768 | -157.92722 | 42 ft | 14 kts | 256° |
| 2026-05-04 03:52 | 21.32741 | -157.92841 | 39 ft | 17 kts | 267° |
| 2026-05-04 03:53 | 21.32741 | -157.92975 | 38 ft | 18 kts | 270° |
| 2026-05-04 03:53 | 21.32741 | -157.93112 | 37 ft | 18 kts | 270° |
| 2026-05-04 03:53 | 21.32741 | -157.93245 | 36 ft | 17 kts | 270° |
| 2026-05-04 03:53 | 21.32741 | -157.93372 | 37 ft | 16 kts | 270° |
| 2026-05-04 03:54 | 21.32741 | -157.93494 | 37 ft | 15 kts | 270° |
| 2026-05-04 03:54 | 21.32741 | -157.93608 | 37 ft | 14 kts | 270° |
| 2026-05-04 03:54 | 21.32741 | -157.93715 | 38 ft | 13 kts | 270° |
| 2026-05-04 03:54 | 21.32741 | -157.93813 | 38 ft | 12 kts | 270° |
| 2026-05-04 03:55 | 21.32742 | -157.93906 | 38 ft | 12 kts | 270° |
| 2026-05-04 03:55 | 21.32741 | -157.93997 | 38 ft | 11 kts | 269° |
| 2026-05-04 03:55 | 21.32706 | -157.94075 | 36 ft | 12 kts | 216° |
| 2026-05-04 03:55 | 21.32633 | -157.94121 | 36 ft | 11 kts | 210° |
| 2026-05-04 03:56 | 21.32541 | -157.94176 | 36 ft | 19 kts | 209° |
| 2026-05-04 03:56 | 21.32415 | -157.94251 | 36 ft | 21 kts | 209° |
| 2026-05-04 03:56 | 21.32286 | -157.94328 | 36 ft | 20 kts | 209° |
| 2026-05-04 03:56 | 21.32161 | -157.94402 | 36 ft | 20 kts | 209° |
| 2026-05-04 03:57 | 21.32041 | -157.94473 | 36 ft | 19 kts | 209° |
| 2026-05-04 03:57 | 21.31925 | -157.94544 | 35 ft | 18 kts | 209° |
| 2026-05-04 03:57 | 21.31813 | -157.94611 | 35 ft | 18 kts | 209° |
| 2026-05-04 03:57 | 21.31692 | -157.94656 | 32 ft | 18 kts | 184° |
| 2026-05-04 03:58 | 21.31431 | -157.94627 | 26 ft | 13 kts | 173° |
| 2026-05-04 03:58 | 21.31335 | -157.94615 | 23 ft | 14 kts | 173° |
| 2026-05-04 03:58 | 21.31235 | -157.94601 | 22 ft | 14 kts | 173° |
| 2026-05-04 03:59 | 21.31138 | -157.94589 | 21 ft | 13 kts | 173° |
| 2026-05-04 03:59 | 21.31042 | -157.94577 | 20 ft | 13 kts | 173° |
| 2026-05-04 03:59 | 21.30947 | -157.94566 | 19 ft | 13 kts | 177° |
| 2026-05-04 03:59 | 21.30858 | -157.94568 | 19 ft | 12 kts | 180° |
| 2026-05-04 04:00 | 21.30777 | -157.94568 | 19 ft | 11 kts | 180° |
| 2026-05-04 04:00 | 21.30703 | -157.94566 | 19 ft | 8 kts | 169° |
| 2026-05-04 04:00 | 21.30680 | -157.94531 | 19 ft | 2 kts | 91° |
| 2026-05-04 04:00 | 21.30680 | -157.94528 | 19 ft | 0 kts | 89° |
| 2026-05-04 04:01 | 21.30680 | -157.94519 | 19 ft | 7 kts | 89° |
| 2026-05-04 04:02 | 21.30680 | -157.94205 | 19 ft | 81 kts | 89° |
| 2026-05-04 04:02 | 21.30679 | -157.93323 | 20 ft | 150 kts | 89° |
| 2026-05-04 04:02 | 21.30673 | -157.92090 | 450 ft | 171 kts | 89° |
| 2026-05-04 04:02 | 21.30394 | -157.90843 | 1116 ft | 188 kts | 120° |
| 2026-05-04 04:03 | 21.29318 | -157.89944 | 1753 ft | 212 kts | 156° |
| 2026-05-04 04:03 | 21.27799 | -157.89647 | 2069 ft | 227 kts | 165° |
| 2026-05-04 04:03 | 21.26203 | -157.89348 | 2478 ft | 234 kts | 163° |
| 2026-05-04 04:03 | 21.24613 | -157.88947 | 2905 ft | 239 kts | 155° |
| 2026-05-04 04:04 | 21.23249 | -157.87906 | 3252 ft | 247 kts | 125° |
| 2026-05-04 04:04 | 21.23019 | -157.87593 | 3345 ft | 249 kts | 123° |
| 2026-05-04 04:04 | 21.22516 | -157.86800 | 3586 ft | 256 kts | 116° |
| 2026-05-04 04:04 | 21.21897 | -157.85016 | 4270 ft | 256 kts | 101° |
| 2026-05-04 04:05 | 21.21551 | -157.83124 | 4902 ft | 262 kts | 97° |
| 2026-05-04 04:05 | 21.21283 | -157.81158 | 4995 ft | 268 kts | 96° |
| 2026-05-04 04:05 | 21.21049 | -157.79211 | 4974 ft | 263 kts | 96° |
| 2026-05-04 04:05 | 21.20823 | -157.77261 | 5060 ft | 269 kts | 95° |
| 2026-05-04 04:06 | 21.20593 | -157.75252 | 5840 ft | 270 kts | 95° |
| 2026-05-04 04:06 | 21.20367 | -157.73279 | 6629 ft | 270 kts | 96° |
| 2026-05-04 04:06 | 21.20139 | -157.71281 | 7244 ft | 275 kts | 96° |
| 2026-05-04 04:06 | 21.19905 | -157.69234 | 7885 ft | 279 kts | 96° |
| 2026-05-04 04:07 | 21.19668 | -157.67172 | 8525 ft | 282 kts | 96° |
| 2026-05-04 04:07 | 21.19428 | -157.65076 | 9106 ft | 287 kts | 96° |
| 2026-05-04 04:07 | 21.19183 | -157.62947 | 9713 ft | 290 kts | 96° |
| 2026-05-04 04:07 | 21.18934 | -157.60774 | 10251 ft | 295 kts | 96° |
| 2026-05-04 04:08 | 21.18676 | -157.58537 | 10291 ft | 319 kts | 96° |
| 2026-05-04 04:08 | 21.18393 | -157.56074 | 10320 ft | 342 kts | 96° |
| 2026-05-04 04:08 | 21.18092 | -157.53467 | 10401 ft | 360 kts | 96° |
| 2026-05-04 04:08 | 21.17784 | -157.50804 | 10799 ft | 367 kts | 96° |
| 2026-05-04 04:09 | 21.17469 | -157.48090 | 11316 ft | 370 kts | 96° |
| 2026-05-04 04:09 | 21.17149 | -157.45323 | 11779 ft | 374 kts | 96° |
| 2026-05-04 04:09 | 21.16828 | -157.42560 | 12217 ft | 378 kts | 96° |
| 2026-05-04 04:09 | 21.16503 | -157.39766 | 12642 ft | 382 kts | 96° |
| 2026-05-04 04:10 | 21.16172 | -157.36923 | 13076 ft | 384 kts | 96° |
| 2026-05-04 04:10 | 21.15839 | -157.34070 | 13479 ft | 388 kts | 96° |
| 2026-05-04 04:10 | 21.15504 | -157.31201 | 13895 ft | 391 kts | 96° |
| 2026-05-04 04:10 | 21.15165 | -157.28293 | 14324 ft | 394 kts | 97° |
| 2026-05-04 04:11 | 21.14823 | -157.25380 | 14744 ft | 397 kts | 96° |
| 2026-05-04 04:11 | 21.14477 | -157.22433 | 15094 ft | 401 kts | 97° |
| 2026-05-04 04:11 | 21.14191 | -157.19485 | 15476 ft | 403 kts | 90° |
| 2026-05-04 04:11 | 21.14615 | -157.16527 | 15839 ft | 403 kts | 71° |
| 2026-05-04 04:12 | 21.15882 | -157.13875 | 16218 ft | 403 kts | 52° |
| 2026-05-04 04:12 | 21.17685 | -157.11577 | 16619 ft | 404 kts | 49° |
| 2026-05-04 04:12 | 21.19484 | -157.09251 | 16979 ft | 407 kts | 49° |
| 2026-05-04 04:12 | 21.21276 | -157.06909 | 17355 ft | 409 kts | 49° |
| 2026-05-04 04:13 | 21.23092 | -157.04523 | 17736 ft | 411 kts | 49° |
| 2026-05-04 04:13 | 21.24904 | -157.02138 | 18124 ft | 413 kts | 50° |
| 2026-05-04 04:13 | 21.26724 | -156.99734 | 18506 ft | 415 kts | 50° |
| 2026-05-04 04:13 | 21.28533 | -156.97345 | 18854 ft | 417 kts | 50° |
| 2026-05-04 04:14 | 21.30356 | -156.94937 | 19191 ft | 420 kts | 50° |
| 2026-05-04 04:14 | 21.32198 | -156.92502 | 19545 ft | 422 kts | 50° |
| 2026-05-04 04:14 | 21.34058 | -156.90042 | 19895 ft | 424 kts | 50° |
| 2026-05-04 04:14 | 21.35922 | -156.87576 | 20223 ft | 426 kts | 50° |
| 2026-05-04 04:15 | 21.37803 | -156.85089 | 20551 ft | 428 kts | 50° |
| 2026-05-04 04:15 | 21.39685 | -156.82596 | 20860 ft | 430 kts | 50° |
| 2026-05-04 04:15 | 21.41570 | -156.80098 | 21173 ft | 432 kts | 50° |
| 2026-05-04 04:15 | 21.43472 | -156.77577 | 21476 ft | 434 kts | 50° |
| 2026-05-04 04:16 | 21.45378 | -156.75050 | 21816 ft | 435 kts | 50° |
| 2026-05-04 04:16 | 21.47270 | -156.72539 | 22070 ft | 438 kts | 50° |
| 2026-05-04 04:16 | 21.49196 | -156.69984 | 22395 ft | 439 kts | 50° |
| 2026-05-04 04:16 | 21.51131 | -156.67415 | 22709 ft | 441 kts | 50° |
| 2026-05-04 04:17 | 21.53052 | -156.64862 | 22957 ft | 443 kts | 50° |
| 2026-05-04 04:17 | 21.54998 | -156.62276 | 23232 ft | 445 kts | 50° |
| 2026-05-04 04:17 | 21.56947 | -156.59683 | 23548 ft | 446 kts | 50° |
| 2026-05-04 04:17 | 21.58894 | -156.57091 | 23839 ft | 447 kts | 50° |
| 2026-05-04 04:18 | 21.60857 | -156.54480 | 24108 ft | 449 kts | 50° |
| 2026-05-04 04:18 | 21.62816 | -156.51869 | 24379 ft | 451 kts | 50° |
| 2026-05-04 04:18 | 21.64790 | -156.49242 | 24627 ft | 453 kts | 50° |
| 2026-05-04 04:18 | 21.66770 | -156.46603 | 24882 ft | 455 kts | 50° |
| 2026-05-04 04:19 | 21.68761 | -156.43948 | 25164 ft | 457 kts | 50° |
| 2026-05-04 04:19 | 21.70750 | -156.41293 | 25470 ft | 458 kts | 49° |
| 2026-05-04 04:19 | 21.72781 | -156.38582 | 25714 ft | 460 kts | 49° |
| 2026-05-04 04:19 | 21.74791 | -156.35896 | 25957 ft | 462 kts | 49° |
| 2026-05-04 04:20 | 21.76781 | -156.33238 | 26231 ft | 463 kts | 50° |
| 2026-05-04 04:20 | 21.78799 | -156.30539 | 26515 ft | 464 kts | 50° |
| 2026-05-04 04:20 | 21.80841 | -156.27809 | 26767 ft | 465 kts | 50° |
| 2026-05-04 04:20 | 21.82876 | -156.25087 | 27005 ft | 467 kts | 50° |
| 2026-05-04 04:21 | 21.84915 | -156.22356 | 27269 ft | 468 kts | 49° |
| 2026-05-04 04:21 | 21.86956 | -156.19621 | 27505 ft | 470 kts | 49° |
| 2026-05-04 04:21 | 21.88999 | -156.16884 | 27725 ft | 472 kts | 49° |
| 2026-05-04 04:21 | 21.91058 | -156.14123 | 27948 ft | 473 kts | 49° |
| 2026-05-04 04:22 | 21.93128 | -156.11346 | 28194 ft | 475 kts | 49° |
| 2026-05-04 04:22 | 21.95199 | -156.08565 | 28409 ft | 476 kts | 49° |
| 2026-05-04 04:22 | 21.97257 | -156.05800 | 28617 ft | 478 kts | 49° |
| 2026-05-04 04:22 | 21.99343 | -156.02998 | 28809 ft | 479 kts | 49° |
| 2026-05-04 04:23 | 22.01435 | -156.00185 | 29035 ft | 480 kts | 49° |
| 2026-05-04 04:23 | 22.03524 | -155.97376 | 29239 ft | 481 kts | 49° |
| 2026-05-04 04:23 | 22.05616 | -155.94560 | 29473 ft | 481 kts | 49° |
| 2026-05-04 04:23 | 22.07734 | -155.91708 | 29738 ft | 481 kts | 49° |
| 2026-05-04 04:24 | 22.09811 | -155.88910 | 29995 ft | 481 kts | 49° |
| 2026-05-04 04:24 | 22.11889 | -155.86108 | 30267 ft | 480 kts | 49° |
| 2026-05-04 04:24 | 22.13997 | -155.83264 | 30536 ft | 480 kts | 49° |
| 2026-05-04 04:24 | 22.16063 | -155.80476 | 30815 ft | 480 kts | 49° |
| 2026-05-04 04:25 | 22.18175 | -155.77624 | 31078 ft | 479 kts | 49° |
| 2026-05-04 04:25 | 22.20244 | -155.74831 | 31360 ft | 479 kts | 49° |
| 2026-05-04 04:25 | 22.22335 | -155.72005 | 31647 ft | 478 kts | 49° |
| 2026-05-04 04:25 | 22.24393 | -155.69222 | 31883 ft | 478 kts | 49° |
| 2026-05-04 04:26 | 22.26473 | -155.66408 | 32126 ft | 478 kts | 49° |
| 2026-05-04 04:26 | 22.28548 | -155.63600 | 32367 ft | 478 kts | 49° |
| 2026-05-04 04:26 | 22.30636 | -155.60771 | 32637 ft | 478 kts | 49° |
| 2026-05-04 04:26 | 22.32710 | -155.57959 | 32899 ft | 477 kts | 49° |